sensor_id;sensor_type;location;lat;lon;timestamp;pressure;altitude;pressure_sealevel;temperature;humidity
77149;BME280;66122;47.130;16.844;2023-06-04T00:04:49;99854.56;;;16.11;83.96
77149;BME280;66122;47.130;16.844;2023-06-04T00:14:52;99840.88;;;15.68;85.05
77149;BME280;66122;47.130;16.844;2023-06-04T00:24:55;99839.78;;;15.94;85.13
77149;BME280;66122;47.130;16.844;2023-06-04T00:34:57;99842.06;;;15.87;85.60
77149;BME280;66122;47.130;16.844;2023-06-04T00:45:00;99833.81;;;15.67;85.32
77149;BME280;66122;47.130;16.844;2023-06-04T00:55:03;99827.50;;;15.91;86.04
77149;BME280;66122;47.130;16.844;2023-06-04T01:05:20;99855.69;;;16.19;85.86
77149;BME280;66122;47.130;16.844;2023-06-04T01:15:26;99853.59;;;15.51;89.29
77149;BME280;66122;47.130;16.844;2023-06-04T01:25:34;99839.16;;;15.67;86.96
77149;BME280;66122;47.130;16.844;2023-06-04T01:35:38;99847.28;;;15.65;86.67
77149;BME280;66122;47.130;16.844;2023-06-04T01:45:41;99855.53;;;15.49;86.06
77149;BME280;66122;47.130;16.844;2023-06-04T01:55:44;99843.34;;;15.58;84.21
77149;BME280;66122;47.130;16.844;2023-06-04T02:05:47;99862.69;;;15.49;84.24
77149;BME280;66122;47.130;16.844;2023-06-04T02:15:52;99839.47;;;15.26;82.05
77149;BME280;66122;47.130;16.844;2023-06-04T02:25:54;99844.31;;;15.44;86.19
77149;BME280;66122;47.130;16.844;2023-06-04T02:35:57;99835.28;;;15.34;89.78
77149;BME280;66122;47.130;16.844;2023-06-04T02:46:00;99828.41;;;14.94;91.51
77149;BME280;66122;47.130;16.844;2023-06-04T02:56:02;99843.31;;;15.34;86.62
77149;BME280;66122;47.130;16.844;2023-06-04T03:06:05;99859.75;;;15.28;87.78
77149;BME280;66122;47.130;16.844;2023-06-04T03:16:08;99859.81;;;14.90;91.06
77149;BME280;66122;47.130;16.844;2023-06-04T03:26:12;99840.31;;;15.26;88.65
77149;BME280;66122;47.130;16.844;2023-06-04T03:36:16;99873.38;;;15.61;87.64
77149;BME280;66122;47.130;16.844;2023-06-04T03:46:19;99879.88;;;15.70;87.53
77149;BME280;66122;47.130;16.844;2023-06-04T03:56:22;99856.66;;;15.71;85.81
77149;BME280;66122;47.130;16.844;2023-06-04T04:06:25;99897.91;;;16.03;88.06
77149;BME280;66122;47.130;16.844;2023-06-04T04:16:29;99867.72;;;15.90;86.73
77149;BME280;66122;47.130;16.844;2023-06-04T04:26:32;99873.88;;;16.14;84.39
77149;BME280;66122;47.130;16.844;2023-06-04T04:36:35;99905.78;;;16.28;85.82
77149;BME280;66122;47.130;16.844;2023-06-04T04:46:39;99881.22;;;16.23;85.37
77149;BME280;66122;47.130;16.844;2023-06-04T04:56:42;99907.94;;;16.71;78.59
77149;BME280;66122;47.130;16.844;2023-06-04T05:06:45;99913.31;;;16.71;81.85
77149;BME280;66122;47.130;16.844;2023-06-04T05:16:48;99896.50;;;16.10;83.09
77149;BME280;66122;47.130;16.844;2023-06-04T05:26:52;99922.97;;;16.37;82.59
77149;BME280;66122;47.130;16.844;2023-06-04T05:36:56;99911.31;;;16.38;81.28
77149;BME280;66122;47.130;16.844;2023-06-04T05:47:00;99923.03;;;16.48;79.22
77149;BME280;66122;47.130;16.844;2023-06-04T05:57:05;99938.94;;;16.62;78.06
77149;BME280;66122;47.130;16.844;2023-06-04T06:07:09;99956.56;;;16.65;79.40
77149;BME280;66122;47.130;16.844;2023-06-04T06:17:12;99977.63;;;16.22;82.92
77149;BME280;66122;47.130;16.844;2023-06-04T06:27:15;99968.97;;;16.18;78.43
77149;BME280;66122;47.130;16.844;2023-06-04T06:37:19;99974.31;;;16.18;76.56
77149;BME280;66122;47.130;16.844;2023-06-04T06:47:21;99993.09;;;16.29;75.10
77149;BME280;66122;47.130;16.844;2023-06-04T06:57:24;99992.34;;;16.64;72.63
77149;BME280;66122;47.130;16.844;2023-06-04T07:07:26;99978.66;;;16.56;72.34
77149;BME280;66122;47.130;16.844;2023-06-04T07:17:29;99981.78;;;16.73;70.52
77149;BME280;66122;47.130;16.844;2023-06-04T07:27:33;99988.19;;;16.95;72.00
77149;BME280;66122;47.130;16.844;2023-06-04T07:37:36;99976.69;;;17.39;72.39
77149;BME280;66122;47.130;16.844;2023-06-04T07:47:38;99966.84;;;17.28;69.66
77149;BME280;66122;47.130;16.844;2023-06-04T07:57:41;99995.16;;;17.77;62.81
77149;BME280;66122;47.130;16.844;2023-06-04T08:07:44;99972.09;;;17.74;62.23
77149;BME280;66122;47.130;16.844;2023-06-04T08:17:46;99995.59;;;17.60;62.47
77149;BME280;66122;47.130;16.844;2023-06-04T08:27:49;99993.53;;;18.08;62.37
77149;BME280;66122;47.130;16.844;2023-06-04T08:37:51;99985.13;;;18.44;61.06
77149;BME280;66122;47.130;16.844;2023-06-04T08:47:54;100017.03;;;18.26;60.89
77149;BME280;66122;47.130;16.844;2023-06-04T08:57:57;99993.19;;;19.49;56.81
77149;BME280;66122;47.130;16.844;2023-06-04T09:08:02;99992.47;;;19.78;56.88
77149;BME280;66122;47.130;16.844;2023-06-04T09:18:06;100013.19;;;19.57;59.11
77149;BME280;66122;47.130;16.844;2023-06-04T09:28:09;99981.41;;;19.71;56.44
77149;BME280;66122;47.130;16.844;2023-06-04T09:38:12;99974.75;;;20.15;57.39
77149;BME280;66122;47.130;16.844;2023-06-04T09:48:21;99977.38;;;20.94;57.24
77149;BME280;66122;47.130;16.844;2023-06-04T09:58:27;99975.97;;;21.93;55.71
77149;BME280;66122;47.130;16.844;2023-06-04T10:08:32;99979.06;;;21.70;58.12
77149;BME280;66122;47.130;16.844;2023-06-04T10:18:35;99993.88;;;22.48;56.64
77149;BME280;66122;47.130;16.844;2023-06-04T10:28:37;99972.41;;;22.65;55.10
77149;BME280;66122;47.130;16.844;2023-06-04T10:38:47;99997.47;;;23.02;53.97
77149;BME280;66122;47.130;16.844;2023-06-04T10:48:52;99983.50;;;23.32;54.63
77149;BME280;66122;47.130;16.844;2023-06-04T10:58:55;99963.41;;;24.45;51.57
77149;BME280;66122;47.130;16.844;2023-06-04T11:09:03;99970.59;;;24.95;49.58
77149;BME280;66122;47.130;16.844;2023-06-04T11:19:05;99968.81;;;24.37;49.56
77149;BME280;66122;47.130;16.844;2023-06-04T11:29:11;99946.22;;;23.78;55.35
77149;BME280;66122;47.130;16.844;2023-06-04T11:39:20;99960.00;;;23.33;51.41
77149;BME280;66122;47.130;16.844;2023-06-04T11:49:24;99950.06;;;23.42;51.90
77149;BME280;66122;47.130;16.844;2023-06-04T11:59:29;99952.63;;;24.11;52.27
77149;BME280;66122;47.130;16.844;2023-06-04T12:09:33;99943.84;;;24.92;50.10
77149;BME280;66122;47.130;16.844;2023-06-04T12:19:48;99920.53;;;25.29;50.65
77149;BME280;66122;47.130;16.844;2023-06-04T12:30:03;99932.66;;;26.13;43.83
77149;BME280;66122;47.130;16.844;2023-06-04T12:40:06;99914.28;;;26.15;44.47
77149;BME280;66122;47.130;16.844;2023-06-04T12:50:13;99907.19;;;25.20;47.41
77149;BME280;66122;47.130;16.844;2023-06-04T13:00:15;99909.63;;;23.66;51.73
77149;BME280;66122;47.130;16.844;2023-06-04T13:10:19;99926.16;;;24.79;48.71
77149;BME280;66122;47.130;16.844;2023-06-04T13:20:23;99915.25;;;24.23;49.91
77149;BME280;66122;47.130;16.844;2023-06-04T13:30:25;99901.56;;;24.57;50.67
77149;BME280;66122;47.130;16.844;2023-06-04T13:40:28;99894.31;;;24.98;50.36
77149;BME280;66122;47.130;16.844;2023-06-04T13:50:33;99888.91;;;24.98;51.44
77149;BME280;66122;47.130;16.844;2023-06-04T14:00:37;99916.63;;;24.27;52.13
77149;BME280;66122;47.130;16.844;2023-06-04T14:10:39;99881.75;;;23.73;54.96
77149;BME280;66122;47.130;16.844;2023-06-04T14:20:43;99899.75;;;23.23;56.69
77149;BME280;66122;47.130;16.844;2023-06-04T14:30:46;99876.78;;;22.75;59.20
77149;BME280;66122;47.130;16.844;2023-06-04T14:40:49;99878.53;;;22.67;62.00
77149;BME280;66122;47.130;16.844;2023-06-04T14:50:51;99874.09;;;22.75;61.40
77149;BME280;66122;47.130;16.844;2023-06-04T15:01:01;99893.00;;;22.04;64.06
77149;BME280;66122;47.130;16.844;2023-06-04T15:11:06;99892.06;;;21.86;64.86
77149;BME280;66122;47.130;16.844;2023-06-04T15:21:09;99870.78;;;21.28;65.96
77149;BME280;66122;47.130;16.844;2023-06-04T15:31:12;99863.75;;;21.08;66.12
77149;BME280;66122;47.130;16.844;2023-06-04T15:41:14;99857.84;;;20.85;66.07
77149;BME280;66122;47.130;16.844;2023-06-04T15:51:17;99889.94;;;20.50;67.00
77149;BME280;66122;47.130;16.844;2023-06-04T16:01:20;99862.41;;;20.17;64.86
77149;BME280;66122;47.130;16.844;2023-06-04T16:11:22;99845.69;;;20.04;64.81
77149;BME280;66122;47.130;16.844;2023-06-04T16:21:27;99876.81;;;19.78;66.17
77149;BME280;66122;47.130;16.844;2023-06-04T16:31:30;99868.63;;;19.79;65.70
77149;BME280;66122;47.130;16.844;2023-06-04T16:41:34;99870.25;;;19.61;67.31
77149;BME280;66122;47.130;16.844;2023-06-04T16:51:37;99888.94;;;19.32;69.16
77149;BME280;66122;47.130;16.844;2023-06-04T17:01:39;99880.56;;;19.26;69.34
77149;BME280;66122;47.130;16.844;2023-06-04T17:11:42;99878.06;;;19.34;69.52
77149;BME280;66122;47.130;16.844;2023-06-04T17:21:46;99902.66;;;18.99;70.35
77149;BME280;66122;47.130;16.844;2023-06-04T17:31:48;99956.41;;;18.24;79.61
77149;BME280;66122;47.130;16.844;2023-06-04T17:41:51;99978.78;;;18.45;77.26
77149;BME280;66122;47.130;16.844;2023-06-04T17:51:54;99988.66;;;17.79;78.54
77149;BME280;66122;47.130;16.844;2023-06-04T18:01:56;99991.00;;;17.73;78.77
77149;BME280;66122;47.130;16.844;2023-06-04T18:11:59;100024.88;;;17.85;83.21
77149;BME280;66122;47.130;16.844;2023-06-04T18:22:02;100012.66;;;17.01;89.42
77149;BME280;66122;47.130;16.844;2023-06-04T18:32:05;99971.25;;;16.83;90.85
77149;BME280;66122;47.130;16.844;2023-06-04T18:42:08;99978.03;;;16.76;93.90
77149;BME280;66122;47.130;16.844;2023-06-04T18:52:31;100004.06;;;16.74;94.63
77149;BME280;66122;47.130;16.844;2023-06-04T19:02:40;100007.22;;;16.79;94.62
77149;BME280;66122;47.130;16.844;2023-06-04T19:12:44;100053.03;;;16.51;96.24
77149;BME280;66122;47.130;16.844;2023-06-04T19:22:47;100069.34;;;16.11;100.00
77149;BME280;66122;47.130;16.844;2023-06-04T19:32:53;100052.53;;;16.09;99.10
77149;BME280;66122;47.130;16.844;2023-06-04T19:42:55;100082.97;;;16.32;98.18
77149;BME280;66122;47.130;16.844;2023-06-04T19:52:59;100064.88;;;15.99;100.00
77149;BME280;66122;47.130;16.844;2023-06-04T20:03:02;100076.25;;;16.14;98.34
77149;BME280;66122;47.130;16.844;2023-06-04T20:13:05;100095.25;;;15.98;99.42
77149;BME280;66122;47.130;16.844;2023-06-04T20:23:08;100088.72;;;15.89;100.00
77149;BME280;66122;47.130;16.844;2023-06-04T20:33:11;100068.31;;;15.76;100.00
77149;BME280;66122;47.130;16.844;2023-06-04T20:43:14;100076.09;;;15.79;100.00
77149;BME280;66122;47.130;16.844;2023-06-04T20:53:19;100090.72;;;15.86;100.00
77149;BME280;66122;47.130;16.844;2023-06-04T21:03:21;100082.94;;;15.83;100.00
77149;BME280;66122;47.130;16.844;2023-06-04T21:13:25;100040.06;;;15.72;100.00
77149;BME280;66122;47.130;16.844;2023-06-04T21:23:29;100054.63;;;15.55;100.00
77149;BME280;66122;47.130;16.844;2023-06-04T21:33:31;100033.09;;;15.18;100.00
77149;BME280;66122;47.130;16.844;2023-06-04T21:43:34;100045.59;;;15.43;100.00
77149;BME280;66122;47.130;16.844;2023-06-04T21:53:37;100022.88;;;14.85;100.00
77149;BME280;66122;47.130;16.844;2023-06-04T22:03:39;100020.78;;;14.91;100.00
77149;BME280;66122;47.130;16.844;2023-06-04T22:13:43;100019.06;;;14.90;100.00
77149;BME280;66122;47.130;16.844;2023-06-04T22:23:45;100050.88;;;14.93;100.00
77149;BME280;66122;47.130;16.844;2023-06-04T22:33:48;100027.28;;;14.87;100.00
77149;BME280;66122;47.130;16.844;2023-06-04T22:43:51;100034.00;;;14.92;100.00
77149;BME280;66122;47.130;16.844;2023-06-04T22:53:55;100075.66;;;14.95;100.00
77149;BME280;66122;47.130;16.844;2023-06-04T23:03:57;100073.66;;;15.11;100.00
77149;BME280;66122;47.130;16.844;2023-06-04T23:14:00;100057.03;;;14.80;100.00
77149;BME280;66122;47.130;16.844;2023-06-04T23:24:04;100043.00;;;14.64;100.00
77149;BME280;66122;47.130;16.844;2023-06-04T23:34:06;100055.13;;;14.82;100.00
77149;BME280;66122;47.130;16.844;2023-06-04T23:44:09;100035.50;;;14.57;100.00
77149;BME280;66122;47.130;16.844;2023-06-04T23:54:12;100041.06;;;14.54;100.00
